ADDS METAR Data INFO
IDs: Format: Raw Decoded Include TAF

Data at: 1442 UTC 22 Feb 2018

KCBK 221435Z AUTO 14008KT 10SM OVC017 M06/M08 A3022 RMK AO2
KCBK 221415Z AUTO 15010KT 10SM OVC019 M06/M08 A3022 RMK AO2
KCBK 221355Z AUTO 14011KT 10SM OVC021 M06/M09 A3023 RMK AO2
KCBK 221335Z AUTO 15010KT 10SM OVC021 M06/M10 A3024 RMK AO2
KCBK 221315Z AUTO 15011KT 10SM OVC021 M06/M10 A3022 RMK AO2
KCBK 221255Z AUTO 13011KT 10SM OVC021 M06/M11 A3023 RMK AO2
KCBK 221235Z AUTO 12009KT 10SM OVC023 M06/M11 A3022 RMK AO2
KCBK 221215Z AUTO 13011KT 10SM OVC025 M06/M11 A3021 RMK AO2
KCBK 221155Z AUTO 12008KT 10SM OVC025 M05/M11 A3021 RMK AO2
KCBK 221135Z AUTO 14008KT 10SM OVC025 M05/M12 A3024 RMK AO2
KCBK 221115Z AUTO 13008KT 10SM SCT023 OVC030 M05/M12 A3023 RMK AO2
KCBK 221055Z AUTO 10011KT 10SM OVC030 M05/M12 A3019 RMK AO2
KCBK 221035Z AUTO 10010KT 10SM OVC030 M05/M12 A3021 RMK AO2
KCBK 221015Z AUTO 11010KT 10SM OVC030 M05/M12 A3023 RMK AO2
KCBK 220955Z AUTO 11008KT 10SM OVC030 M05/M12 A3025 RMK AO2
KCBK 220935Z AUTO 13009KT 10SM OVC030 M05/M12 A3025 RMK AO2
KCBK 220915Z AUTO 11009KT 10SM OVC034 M05/M12 A3025 RMK AO2
KCBK 220855Z AUTO 12009KT 10SM OVC034 M05/M12 A3026 RMK AO2
KCBK 220835Z AUTO 12008KT 10SM OVC034 M05/M13 A3027 RMK AO2
KCBK 220815Z AUTO 12007KT 10SM OVC034 M05/M13 A3028 RMK AO2
KCBK 220755Z AUTO 12006KT 10SM OVC034 M05/M13 A3029 RMK AO2
KCBK 220735Z AUTO 11007KT 10SM OVC032 M05/M13 A3029 RMK AO2
KCBK 220715Z AUTO 11006KT 10SM OVC030 M05/M13 A3029 RMK AO2
KCBK 220655Z AUTO 11009KT 10SM OVC033 M05/M13 A3029 RMK AO2
KCBK 220635Z AUTO 12009KT 10SM SCT031 OVC038 M05/M13 A3029 RMK AO2
KCBK 220615Z AUTO 12009KT 10SM BKN033 OVC041 M05/M13 A3030 RMK AO2
KCBK 220555Z AUTO 12008KT 10SM BKN033 OVC044 M05/M13 A3030 RMK AO2
KCBK 220535Z AUTO 11011KT 10SM BKN037 OVC042 M05/M13 A3031 RMK AO2
KCBK 220515Z AUTO 12010KT 10SM OVC039 M05/M13 A3031 RMK AO2
KCBK 220455Z AUTO 12010KT 10SM OVC043 M05/M13 A3032 RMK AO2
KCBK 220435Z AUTO 12008KT 10SM SCT033 OVC043 M05/M12 A3032 RMK AO2
KCBK 220415Z AUTO 13009KT 10SM OVC043 M04/M14 A3032 RMK AO2
KCBK 220355Z AUTO 13010KT 10SM OVC041 M04/M13 A3032 RMK AO2
KCBK 220035Z AUTO 12009KT 10SM BKN043 OVC055 M02/M13 A3032 RMK AO2
KCBK 220015Z AUTO 12010KT 10SM BKN045 OVC055 M02/M13 A3033 RMK AO2
KCBK 212355Z AUTO 14009KT 10SM OVC047 M02/M12 A3034 RMK AO2
KCBK 212335Z AUTO 12013KT 10SM BKN048 OVC055 M02/M12 A3034 RMK AO2
KCBK 212315Z AUTO 13012KT 10SM SCT046 OVC055 M01/M14 A3034 RMK AO2
KCBK 212255Z AUTO 13012KT 10SM OVC065 M01/M14 A3034 RMK AO2
KCBK 212235Z AUTO 12012KT 10SM OVC065 M01/M14 A3033 RMK AO2
KCBK 212215Z AUTO 13008KT 10SM OVC065 M01/M15 A3033 RMK AO2
KCBK 212155Z AUTO 12009KT 10SM OVC075 M01/M14 A3033 RMK AO2
KCBK 212130Z AUTO 13008KT 10SM SCT050 BKN075 OVC090 M01/M14 A3034 RMK AO2
KCBK 212115Z AUTO 15007KT 10SM SCT050 BKN090 00/M14 A3035 RMK AO2
KCBK 212055Z AUTO 15007G16KT 10SM SCT060 00/M13 A3035 RMK AO2
KCBK 212035Z AUTO 14011G15KT 10SM SCT060 00/M13 A3035 RMK AO2
KCBK 212015Z AUTO 14007KT 10SM OVC070 M01/M13 A3036 RMK AO2
KCBK 211955Z AUTO 17008KT 10SM OVC070 M01/M13 A3037 RMK AO2
KCBK 211935Z AUTO 14004KT 10SM OVC070 M02/M13 A3038 RMK AO2
KCBK 211915Z AUTO 14007KT 10SM OVC080 M03/M13 A3040 RMK AO2
KCBK 211855Z AUTO 17009KT 10SM BKN080 M02/M13 A3041 RMK AO2 PWINO
KCBK 211835Z AUTO 15008KT 110V170 10SM CLR M03/M13 A3042 RMK AO2
KCBK 211815Z AUTO 15003KT 10SM CLR M04/M13 A3043 RMK AO2
KCBK 211755Z AUTO 14007KT 10SM CLR M05/M13 A3044 RMK AO2
KCBK 211735Z AUTO 15005KT 10SM CLR M05/M13 A3045 RMK AO2
KCBK 211715Z AUTO 17005KT 10SM CLR M06/M13 A3045 RMK AO2
KCBK 211655Z AUTO 13004KT 10SM CLR M07/M13 A3046 RMK AO2
KCBK 211635Z AUTO 16003KT 10SM CLR M07/M13 A3046 RMK AO2
KCBK 211615Z AUTO 15003KT 10SM CLR M08/M13 A3046 RMK AO2
KCBK 211555Z AUTO 15004KT 10SM CLR M09/M13 A3047 RMK AO2
KCBK 211535Z AUTO 17004KT 10SM CLR M10/M13 A3048 RMK AO2
KCBK 211515Z AUTO 16007KT 10SM CLR M10/M13 A3048 RMK AO2
KCBK 211455Z AUTO 15006KT 10SM CLR M11/M13 A3047 RMK AO2
KCBK 211435Z AUTO 00000KT 10SM CLR M12/M14 A3046 RMK AO2
KCBK 211415Z AUTO 00000KT 10SM CLR M13/M15 A3045 RMK AO2
KCBK 211355Z AUTO 00000KT 10SM CLR M16/M17 A3043 RMK AO2
KCBK 211335Z AUTO 00000KT 10SM CLR M16/M18 A3042 RMK AO2
KCBK 211315Z AUTO 00000KT 10SM CLR M16/M17 A3041 RMK AO2
KCBK 211255Z AUTO 00000KT 10SM CLR M17/M18 A3040 RMK AO2
KCBK 211235Z AUTO 26004KT 10SM CLR M16/M17 A3038 RMK AO2
KCBK 210735Z AUTO 30007KT 10SM SCT110 M13/M15 A3040 RMK AO2
KCBK 210715Z AUTO 32006KT 10SM BKN120 M12/M15 A3038 RMK AO2
KCBK 210655Z AUTO 31004KT 10SM OVC120 M11/M14 A3038 RMK AO2
KCBK 210635Z AUTO 33009KT 10SM OVC120 M10/M13 A3036 RMK AO2
KCBK 210615Z AUTO 31008KT 10SM OVC120 M10/M13 A3036 RMK AO2
KCBK 210555Z AUTO 32009KT 10SM OVC120 M11/M13 A3035 RMK AO2